Time;durP1;ratioP1;P1;durP2;ratioP2;P2;SDS_P1;SDS_P2;PMS_P1;PMS_P2;Temp;Humidity;BMP_temperature;BMP_pressure;BME280_temperature;BME280_humidity;BME280_pressure;Samples;Min_cycle;Max_cycle;Signal;HPM_P1;HPM_P2
2022/11/26 00:01:36;;;;;;;12.38;3.00;;;4.80;99.90;;;;;;6100283;23;20030;-95
2022/11/26 00:08:00;;;;;;;12.77;3.15;;;5.30;99.90;;;;;;6124278;23;20030;-95
2022/11/26 00:10:49;;;;;;;10.57;2.80;;;5.30;99.90;;;;;;6099960;23;20113;-95
2022/11/26 00:13:30;;;;;;;13.73;3.78;;;5.30;99.90;;;;;;6098686;23;20029;-96
2022/11/26 00:15:57;;;;;;;11.70;3.40;;;5.10;99.90;;;;;;6098260;23;20021;-96
2022/11/26 00:19:01;;;;;;;11.30;2.88;;;5.20;99.90;;;;;;6075862;23;20037;-96
2022/11/26 00:21:37;;;;;;;15.63;3.63;;;5.20;99.90;;;;;;6100471;23;20096;-96
2022/11/26 00:24:29;;;;;;;13.27;3.40;;;6.30;99.90;;;;;;6101034;23;20022;-96
2022/11/26 00:26:58;;;;;;;14.55;4.05;;;5.10;99.90;;;;;;6076476;23;20025;-96
2022/11/26 00:29:32;;;;;;;12.02;3.88;;;5.10;99.90;;;;;;6100426;23;20022;-96
2022/11/26 00:31:58;;;;;;;14.38;3.47;;;5.10;99.90;;;;;;6077789;23;20029;-96
2022/11/26 00:41:58;;;;;;;11.83;3.27;;;5.10;99.90;;;;;;6126553;23;20029;-96
2022/11/26 00:54:48;;;;;;;13.25;4.15;;;5.10;99.90;;;;;;6125452;23;20667;-96
2022/11/26 01:01:09;;;;;;;10.82;3.55;;;5.00;99.90;;;;;;6124952;23;20100;-96
2022/11/26 01:03:35;;;;;;;10.15;3.75;;;4.90;99.90;;;;;;6100741;23;20014;-96
2022/11/26 01:06:04;;;;;;;9.77;3.42;;;4.90;99.90;;;;;;6052365;23;20098;-96
2022/11/26 01:16:32;;;;;;;9.75;3.78;;;4.90;99.90;;;;;;6126325;23;20594;-96
2022/11/26 01:22:55;;;;;;;12.85;4.28;;;4.90;99.90;;;;;;6124675;23;20026;-96
2022/11/26 01:25:24;;;;;;;13.38;3.78;;;4.90;99.90;;;;;;6100485;23;20026;-96
2022/11/26 01:35:07;;;;;;;11.45;3.63;;;4.80;99.90;;;;;;6126261;23;20022;-96
2022/11/26 01:37:33;;;;;;;13.68;3.80;;;4.70;99.90;;;;;;6102007;23;20013;-96
2022/11/26 01:47:26;;;;;;;9.18;3.67;;;4.80;99.90;;;;;;6127405;23;20100;-96
2022/11/26 01:53:37;;;;;;;17.88;3.92;;;4.80;99.90;;;;;;6127310;23;20061;-96
2022/11/26 01:56:41;;;;;;;13.55;4.50;;;4.80;99.90;;;;;;6102058;23;20014;-96
2022/11/26 01:59:33;;;;;;;17.17;4.90;;;4.70;99.90;;;;;;6101728;23;20018;-96
2022/11/26 02:02:00;;;;;;;10.45;4.13;;;4.80;99.90;;;;;;6101981;23;20026;-96
2022/11/26 02:04:35;;;;;;;14.65;4.68;;;4.70;99.90;;;;;;6101215;23;20021;-96
2022/11/26 02:07:04;;;;;;;10.15;4.70;;;4.70;99.90;;;;;;6102277;23;20033;-96
2022/11/26 02:09:32;;;;;;;9.85;4.65;;;4.70;99.90;;;;;;6115914;23;20051;-96
2022/11/26 02:12:01;;;;;;;14.38;5.50;;;4.70;99.90;;;;;;6118724;23;20030;-96
2022/11/26 02:22:13;;;;;;;14.35;4.22;;;4.70;99.90;;;;;;6128762;23;20064;-96
2022/11/26 02:35:48;;;;;;;14.50;5.13;;;4.60;99.90;;;;;;6126846;23;20061;-96
2022/11/26 02:38:23;;;;;;;14.57;5.07;;;4.60;99.90;;;;;;6100907;23;20022;-96
2022/11/26 02:41:09;;;;;;;14.98;5.20;;;4.70;99.90;;;;;;6101265;23;20133;-96
2022/11/26 02:47:07;;;;;;;16.42;4.70;;;4.60;99.90;;;;;;6125922;23;20025;-96
2022/11/26 02:49:52;;;;;;;13.55;5.00;;;4.60;99.90;;;;;;6101583;23;20104;-96
2022/11/26 02:56:22;;;;;;;12.75;4.25;;;4.50;99.90;;;;;;6128217;23;20016;-96
2022/11/26 03:09:01;;;;;;;19.00;4.80;;;3.40;99.90;;;;;;6127538;23;20026;-96
2022/11/26 03:19:27;;;;;;;17.73;5.15;;;4.50;99.90;;;;;;6126885;23;20060;-96
2022/11/26 03:22:32;;;;;;;16.63;5.45;;;4.60;99.90;;;;;;6078446;23;20455;-96
2022/11/26 03:25:38;;;;;;;17.10;6.20;;;3.60;99.90;;;;;;6077759;23;20448;-96
2022/11/26 03:28:41;;;;;;;17.90;5.90;;;4.50;99.90;;;;;;6078234;23;20018;-96
2022/11/26 03:34:49;;;;;;;9.88;4.95;;;4.40;99.90;;;;;;6127960;23;20504;-96
2022/11/26 03:37:16;;;;;;;14.70;5.32;;;4.40;99.90;;;;;;6126510;23;20014;-96
2022/11/26 03:43:23;;;;;;;15.50;5.03;;;4.20;99.90;;;;;;6127481;23;20060;-96
2022/11/26 03:49:49;;;;;;;14.98;4.43;;;4.50;99.90;;;;;;6127748;23;20056;-96
2022/11/26 04:00:14;;;;;;;12.45;4.25;;;4.40;99.90;;;;;;6127007;23;20064;-96
2022/11/26 04:06:41;;;;;;;13.32;5.45;;;4.40;99.90;;;;;;6128020;23;20804;-96
2022/11/26 04:09:11;;;;;;;11.25;5.00;;;4.40;99.90;;;;;;6065262;23;20019;-96
2022/11/26 04:15:17;;;;;;;13.48;5.32;;;4.40;99.90;;;;;;6040167;23;20031;-96
2022/11/26 04:21:07;;;;;;;17.25;5.88;;;4.30;99.90;;;;;;6039382;23;20019;-96
2022/11/26 04:23:54;;;;;;;17.23;4.90;;;4.50;99.90;;;;;;6015876;23;20098;-96
2022/11/26 04:30:20;;;;;;;17.45;6.03;;;4.40;99.90;;;;;;6039876;23;20110;-96
2022/11/26 04:36:27;;;;;;;13.05;5.32;;;4.30;99.90;;;;;;6040239;23;20050;-96
2022/11/26 04:42:54;;;;;;;14.10;5.22;;;4.40;99.90;;;;;;6038782;23;20102;-96
2022/11/26 04:45:22;;;;;;;16.35;5.78;;;4.40;99.90;;;;;;6063538;23;20027;-96
2022/11/26 04:47:52;;;;;;;18.20;6.70;;;3.50;99.90;;;;;;6015676;23;20026;-96
2022/11/26 04:54:31;;;;;;;19.48;6.15;;;4.40;99.90;;;;;;6037839;23;20027;-96
2022/11/26 05:01:07;;;;;;;20.30;6.63;;;4.40;99.90;;;;;;6038168;23;20027;-96
2022/11/26 05:03:52;;;;;;;17.40;7.35;;;4.40;99.90;;;;;;6063506;23;20030;-96
2022/11/26 05:06:20;;;;;;;19.65;6.75;;;3.60;99.90;;;;;;6015514;23;20019;-95
2022/11/26 05:09:19;;;;;;;13.02;6.00;;;4.20;99.90;;;;;;6015209;23;20030;-96
2022/11/26 05:12:06;;;;;;;18.05;6.80;;;4.30;99.90;;;;;;6063377;23;20346;-95
2022/11/26 05:14:35;;;;;;;16.25;7.25;;;4.10;99.90;;;;;;6016068;23;20342;-95
2022/11/26 05:17:05;;;;;;;15.75;6.28;;;4.20;99.90;;;;;;6016224;23;20465;-96
2022/11/26 05:19:33;;;;;;;15.52;6.22;;;4.10;99.90;;;;;;6016314;23;20120;-96
2022/11/26 05:22:18;;;;;;;16.65;6.78;;;4.10;99.90;;;;;;6016136;23;20042;-95
2022/11/26 05:24:44;;;;;;;23.00;7.10;;;4.10;99.90;;;;;;6050605;23;20019;-96
2022/11/26 05:27:12;;;;;;;17.00;6.45;;;4.20;99.90;;;;;;6026990;23;20023;-96
2022/11/26 05:29:40;;;;;;;19.65;7.22;;;4.20;99.90;;;;;;6039414;23;20023;-96
2022/11/26 05:32:25;;;;;;;18.75;7.72;;;4.10;99.90;;;;;;6066111;23;20011;-96
2022/11/26 05:38:32;;;;;;;18.83;7.68;;;2.90;99.90;;;;;;6043811;23;20026;-96
2022/11/26 05:45:00;;;;;;;18.80;8.80;;;3.10;99.90;;;;;;6042315;23;20018;-96
2022/11/26 05:47:50;;;;;;;22.63;8.05;;;4.10;99.90;;;;;;6017080;23;20769;-96
2022/11/26 05:50:22;;;;;;;20.95;8.43;;;4.10;99.90;;;;;;6017017;23;20023;-96
2022/11/26 05:56:30;;;;;;;13.18;7.57;;;4.10;99.90;;;;;;6042894;23;20710;-96
2022/11/26 06:02:52;;;;;;;19.77;7.70;;;4.10;99.90;;;;;;6040118;23;20030;-96
2022/11/26 06:05:38;;;;;;;20.88;8.65;;;4.00;99.90;;;;;;6039321;23;20098;-96
2022/11/26 06:08:04;;;;;;;23.27;8.57;;;4.10;99.90;;;;;;6063144;23;20102;-96
2022/11/26 06:14:31;;;;;;;20.05;7.60;;;4.10;99.90;;;;;;6039781;23;20030;-95
2022/11/26 06:35:16;;;;;;;24.38;8.15;;;4.00;99.90;;;;;;6039843;23;20019;-96
2022/11/26 06:41:43;;;;;;;19.17;7.90;;;4.10;99.90;;;;;;6040631;23;20037;-95
2022/11/26 06:44:30;;;;;;;21.75;8.18;;;4.00;99.90;;;;;;6015658;23;20030;-96
2022/11/26 06:47:36;;;;;;;19.00;8.65;;;4.10;99.90;;;;;;6016059;23;20023;-96
2022/11/26 06:50:02;;;;;;;17.40;8.20;;;4.00;99.90;;;;;;6062752;23;20023;-95
2022/11/26 06:56:30;;;;;;;21.73;8.18;;;4.00;99.90;;;;;;6040622;23;20018;-96
2022/11/26 06:59:17;;;;;;;23.13;8.75;;;4.10;99.90;;;;;;6028439;23;20027;-95
2022/11/26 07:01:45;;;;;;;22.58;8.27;;;4.10;99.90;;;;;;6038536;23;20026;-96
2022/11/26 07:07:49;;;;;;;22.38;7.70;;;4.10;99.90;;;;;;6041729;23;20029;-95
2022/11/26 07:10:16;;;;;;;20.65;8.15;;;4.10;99.90;;;;;;6014861;23;20030;-96
2022/11/26 07:12:42;;;;;;;21.00;9.93;;;3.00;99.90;;;;;;6014984;23;20063;-95
2022/11/26 07:15:10;;;;;;;25.73;8.98;;;4.00;99.90;;;;;;6015554;23;20418;-96
2022/11/26 07:17:37;;;;;;;19.30;8.93;;;4.10;99.90;;;;;;6016001;23;20023;-96
2022/11/26 07:20:24;;;;;;;26.00;9.13;;;4.00;99.90;;;;;;6015662;23;20019;-96
2022/11/26 07:23:13;;;;;;;25.70;9.60;;;3.40;99.90;;;;;;6014820;23;20468;-96
2022/11/26 07:26:17;;;;;;;17.42;8.15;;;4.00;99.90;;;;;;6062046;23;20059;-95
2022/11/26 07:29:06;;;;;;;20.33;8.30;;;4.10;99.90;;;;;;6061325;23;20150;-96
2022/11/26 07:38:02;;;;;;;24.60;8.43;;;4.20;99.90;;;;;;6040878;23;20026;-96
2022/11/26 07:40:32;;;;;;;19.98;8.52;;;3.20;99.90;;;;;;6041433;23;20038;-96
2022/11/26 07:43:17;;;;;;;17.38;8.98;;;4.10;99.90;;;;;;6040485;23;20103;-96
2022/11/26 07:46:04;;;;;;;21.27;8.73;;;4.10;99.90;;;;;;6016247;23;20585;-96
2022/11/26 07:48:34;;;;;;;20.85;9.20;;;4.20;99.90;;;;;;6017528;23;20022;-96
2022/11/26 07:51:01;;;;;;;21.50;9.38;;;4.30;99.90;;;;;;6016858;23;20027;-96
2022/11/26 07:53:49;;;;;;;23.42;9.55;;;4.40;99.90;;;;;;6016781;23;20163;-96
2022/11/26 07:56:18;;;;;;;24.55;11.43;;;4.40;99.90;;;;;;6016314;23;20015;-96
2022/11/26 07:59:21;;;;;;;28.48;12.98;;;4.50;99.90;;;;;;6064567;23;20023;-96
2022/11/26 08:02:11;;;;;;;24.15;11.07;;;4.60;99.90;;;;;;6063630;23;20064;-96
2022/11/26 08:08:18;;;;;;;25.15;11.50;;;4.70;99.90;;;;;;6059711;23;20113;-96
2022/11/26 08:11:38;;;;;;;22.17;10.75;;;4.80;99.90;;;;;;6092418;23;20023;-96
2022/11/26 08:14:16;;;;;;;29.25;11.35;;;3.90;99.90;;;;;;6066356;23;20074;-96
2022/11/26 08:16:46;;;;;;;22.55;10.57;;;4.90;99.90;;;;;;6041796;23;20026;-96
2022/11/26 08:19:31;;;;;;;29.30;10.88;;;5.00;99.90;;;;;;6042704;23;20036;-95
2022/11/26 08:21:57;;;;;;;23.85;10.05;;;4.90;99.90;;;;;;6043938;23;20019;-96
2022/11/26 08:25:05;;;;;;;25.15;10.48;;;5.80;99.90;;;;;;6042487;23;20371;-96
2022/11/26 08:28:09;;;;;;;20.48;9.98;;;5.10;99.90;;;;;;6067146;23;20282;-96
2022/11/26 08:30:39;;;;;;;22.35;9.90;;;5.20;99.90;;;;;;6043974;23;20018;-96
2022/11/26 08:33:25;;;;;;;25.10;10.32;;;5.20;99.90;;;;;;6093898;23;20019;-95
2022/11/26 08:36:28;;;;;;;23.27;9.40;;;5.40;99.90;;;;;;6068814;23;20055;-96
2022/11/26 08:38:57;;;;;;;20.15;9.57;;;5.40;99.90;;;;;;6106346;23;20051;-96
2022/11/26 08:45:30;;;;;;;21.13;9.93;;;5.40;99.90;;;;;;6095513;23;20005;-95
2022/11/26 08:59:01;;;;;;;21.10;9.73;;;5.80;99.90;;;;;;6073708;23;20079;-96
2022/11/26 09:02:05;;;;;;;24.38;9.90;;;6.00;99.90;;;;;;6094373;23;20034;-96
2022/11/26 09:05:10;;;;;;;22.85;10.75;;;6.30;99.90;;;;;;6046243;23;20019;-95
2022/11/26 09:08:21;;;;;;;25.38;9.77;;;6.00;99.90;;;;;;6069157;23;20023;-95
2022/11/26 09:11:13;;;;;;;;;;;5.10;99.90;;;;;;6045056;23;20026;-96
2022/11/26 09:14:08;;;;;;;27.30;10.85;;;5.30;99.90;;;;;;6068517;23;20008;-95
2022/11/26 09:16:34;;;;;;;20.27;9.15;;;6.20;99.90;;;;;;6093081;23;20486;-96
2022/11/26 09:19:23;;;;;;;19.08;9.10;;;6.30;99.90;;;;;;6093937;23;20098;-96
2022/11/26 09:29:15;;;;;;;17.85;8.18;;;6.60;99.90;;;;;;6070411;23;20015;-96
2022/11/26 09:35:07;;;;;;;21.25;7.80;;;6.80;99.90;;;;;;6091341;23;20022;-96
2022/11/26 09:37:45;;;;;;;23.98;8.15;;;6.80;99.90;;;;;;6066457;23;20023;-93
2022/11/26 09:44:13;;;;;;;18.20;7.65;;;6.90;99.90;;;;;;6069374;23;20186;-96
2022/11/26 09:47:15;;;;;;;20.85;8.27;;;6.90;99.90;;;;;;6091283;23;20022;-95
2022/11/26 09:49:52;;;;;;;19.10;8.35;;;7.00;99.90;;;;;;6067619;23;20019;-95
2022/11/26 09:56:00;;;;;;;21.60;8.02;;;6.30;99.90;;;;;;6070148;23;20026;-96
2022/11/26 10:02:55;;;;;;;;;;;;;;;;;;;;;
2022/11/26 10:12:27;;;;;;;18.73;6.75;;;7.20;99.90;;;;;;6097186;23;20030;-96
2022/11/26 10:15:17;;;;;;;17.25;6.72;;;7.40;99.90;;;;;;6120939;23;20022;-96
2022/11/26 10:18:21;;;;;;;14.75;6.68;;;7.40;99.90;;;;;;6073361;23;20105;-95
2022/11/26 10:21:30;;;;;;;16.15;7.47;;;6.70;99.90;;;;;;6096364;23;20086;-95
2022/11/26 10:27:41;;;;;;;15.25;7.10;;;7.50;99.90;;;;;;6098196;23;20085;-96
2022/11/26 10:33:42;;;;;;;17.80;7.13;;;7.60;99.90;;;;;;6119956;23;20173;-96
2022/11/26 10:36:21;;;;;;;18.42;7.32;;;7.60;99.90;;;;;;6071336;23;20375;-96
2022/11/26 10:39:24;;;;;;;18.38;7.18;;;7.60;99.90;;;;;;6071795;23;20014;-95
2022/11/26 10:41:50;;;;;;;22.42;7.90;;;7.70;99.90;;;;;;6096618;23;20488;-95
2022/11/26 10:44:40;;;;;;;15.27;7.53;;;7.60;99.90;;;;;;6073341;23;20027;-96
2022/11/26 10:47:43;;;;;;;22.98;8.68;;;7.70;99.90;;;;;;6072076;23;20053;-94
2022/11/26 10:50:33;;;;;;;13.13;7.90;;;7.70;99.90;;;;;;6096499;23;20022;-95
2022/11/26 10:53:07;;;;;;;15.43;7.88;;;7.70;99.90;;;;;;6071620;23;20019;-95
2022/11/26 10:55:40;;;;;;;21.45;8.48;;;7.80;99.90;;;;;;6072433;23;20021;-96
2022/11/26 11:05:19;;;;;;;18.52;7.95;;;7.90;99.90;;;;;;6121227;23;20073;-95
2022/11/26 11:11:44;;;;;;;16.52;8.25;;;8.00;99.90;;;;;;6098066;23;20345;-96
2022/11/26 11:19:21;;;;;;;;;;;;;;;;;;;;;
2022/11/26 11:22:16;;;;;;;;;;;;;;;;;;;;;
2022/11/26 11:37:41;;;;;;;;;;;;;;;;;;;;;
2022/11/26 11:47:56;;;;;;;;;;;;;;;;;;;;;
2022/11/26 11:51:10;;;;;;;;;;;;;;;;;;;;;
2022/11/26 11:54:20;;;;;;;;;;;;;;;;;;;;;
2022/11/26 11:57:58;;;;;;;;;;;;;;;;;;;;;
2022/11/26 12:01:21;;;;;;;;;;;;;;;;;;;;;
2022/11/26 12:07:38;;;;;;;;;;;;;;;;;;;;;
2022/11/26 12:10:46;;;;;;;;;;;;;;;;;;;;;
2022/11/26 12:13:57;;;;;;;;;;;;;;;;;;;;;
2022/11/26 12:17:13;;;;;;;;;;;;;;;;;;;;;
2022/11/26 12:20:16;;;;;;;;;;;;;;;;;;;;;
2022/11/26 12:23:22;;;;;;;;;;;;;;;;;;;;;
2022/11/26 12:30:13;;;;;;;24.65;9.25;;;8.30;99.90;;;;;;6095580;23;20026;-93
2022/11/26 12:36:50;;;;;;;;;;;;;;;;;;;;;
2022/11/26 12:40:01;;;;;;;;;;;;;;;;;;;;;
2022/11/26 12:43:14;;;;;;;;;;;;;;;;;;;;;
2022/11/26 12:46:24;;;;;;;;;;;;;;;;;;;;;
2022/11/26 12:49:47;;;;;;;;;;;;;;;;;;;;;
2022/11/26 12:52:49;;;;;;;21.17;8.80;;;8.50;99.90;;;;;;6031655;23;20102;-96
2022/11/26 12:55:53;;;;;;;21.77;8.20;;;8.50;99.90;;;;;;6014087;23;20097;-95
2022/11/26 12:58:39;;;;;;;23.73;8.70;;;8.40;99.90;;;;;;6014201;23;20395;-95
2022/11/26 13:01:26;;;;;;;21.05;9.32;;;8.50;99.90;;;;;;6013483;23;20076;-95
2022/11/26 13:03:54;;;;;;;17.25;8.82;;;8.40;99.90;;;;;;6013558;23;20027;-96
2022/11/26 13:07:04;;;;;;;22.05;9.48;;;8.20;99.90;;;;;;5989598;23;20102;-96
2022/11/26 13:10:03;;;;;;;21.85;8.38;;;8.50;99.90;;;;;;6012605;23;20024;-95
2022/11/26 13:12:36;;;;;;;22.75;9.30;;;8.50;99.90;;;;;;6010419;23;20023;-95
2022/11/26 13:15:25;;;;;;;19.10;8.95;;;8.40;99.90;;;;;;6010282;23;20031;-96
2022/11/26 13:17:52;;;;;;;24.17;9.43;;;8.40;99.90;;;;;;6009855;23;20272;-96
2022/11/26 13:20:56;;;;;;;19.65;9.43;;;8.40;99.90;;;;;;6011320;23;20087;-94
2022/11/26 13:23:54;;;;;;;25.23;9.95;;;8.40;99.90;;;;;;6014952;23;20023;-95
2022/11/26 13:26:45;;;;;;;20.70;9.27;;;8.40;99.90;;;;;;5962284;23;20590;-96
2022/11/26 13:29:48;;;;;;;18.42;10.10;;;8.40;99.90;;;;;;6015169;23;20079;-95
2022/11/26 13:36:20;;;;;;;20.15;9.95;;;8.00;99.90;;;;;;6043984;23;20189;-96
2022/11/26 13:39:26;;;;;;;27.42;10.95;;;7.70;99.90;;;;;;6097055;23;20022;-95
2022/11/26 13:49:00;;;;;;;27.50;11.13;;;8.10;99.90;;;;;;6097340;23;20037;-96
2022/11/26 13:51:48;;;;;;;21.83;12.10;;;8.10;99.90;;;;;;6072327;23;20342;-96
2022/11/26 13:54:26;;;;;;;24.10;11.77;;;8.20;99.90;;;;;;6048033;23;20019;-96
2022/11/26 13:57:17;;;;;;;27.38;11.45;;;8.30;99.90;;;;;;6072518;23;20014;-96
2022/11/26 14:00:06;;;;;;;26.45;12.95;;;8.10;99.90;;;;;;6072105;23;20015;-95
2022/11/26 14:02:32;;;;;;;25.58;11.30;;;8.00;99.90;;;;;;6072036;23;20182;-96
2022/11/26 14:05:19;;;;;;;30.77;12.10;;;8.50;99.90;;;;;;6071925;23;20517;-96
2022/11/26 14:07:46;;;;;;;24.23;12.68;;;8.10;99.90;;;;;;6072259;23;20074;-96
2022/11/26 14:10:39;;;;;;;21.98;12.38;;;8.00;99.90;;;;;;6072290;23;20101;-96
2022/11/26 14:13:08;;;;;;;23.63;11.57;;;8.00;99.90;;;;;;6073245;23;20073;-96
2022/11/26 14:26:51;;;;;;;24.52;11.68;;;8.00;99.90;;;;;;6099224;23;20069;-96
2022/11/26 14:29:18;;;;;;;23.85;10.93;;;8.70;99.90;;;;;;6076098;23;20030;-96
2022/11/26 14:31:52;;;;;;;28.80;11.57;;;7.90;99.90;;;;;;6049724;23;20023;-94
2022/11/26 14:34:38;;;;;;;25.80;12.25;;;7.90;99.90;;;;;;6051399;23;20022;-95
2022/11/26 14:37:13;;;;;;;29.60;12.88;;;7.90;99.90;;;;;;6071281;23;20401;-96
2022/11/26 14:39:59;;;;;;;23.17;12.80;;;7.90;99.90;;;;;;6098321;23;20028;-96
2022/11/26 14:42:46;;;;;;;26.08;12.18;;;7.90;99.90;;;;;;6076912;23;20045;-95
2022/11/26 14:45:17;;;;;;;23.10;12.02;;;7.20;99.90;;;;;;6088289;23;20021;-96
2022/11/26 14:51:28;;;;;;;26.15;13.10;;;7.90;99.90;;;;;;6122787;23;20022;-95
2022/11/26 14:57:47;;;;;;;28.48;12.95;;;7.80;99.90;;;;;;6102390;23;20097;-96
2022/11/26 15:04:04;;;;;;;30.83;13.17;;;7.80;99.90;;;;;;6097853;23;20017;-96
2022/11/26 15:10:05;;;;;;;28.88;12.32;;;7.70;99.90;;;;;;6096654;23;20018;-96
2022/11/26 15:12:51;;;;;;;26.45;12.25;;;6.90;99.90;;;;;;6072535;23;20022;-96
2022/11/26 15:15:20;;;;;;;26.33;11.88;;;7.60;99.90;;;;;;6071949;23;20473;-96
2022/11/26 15:18:16;;;;;;;28.75;11.70;;;7.60;99.90;;;;;;6071731;23;20092;-96
2022/11/26 15:20:42;;;;;;;32.65;13.10;;;7.60;99.90;;;;;;6069082;23;20422;-96
2022/11/26 15:23:13;;;;;;;27.10;11.57;;;7.60;99.90;;;;;;6044670;23;20050;-96
2022/11/26 15:32:36;;;;;;;24.67;12.02;;;7.50;99.90;;;;;;6096099;23;20022;-96
2022/11/26 15:35:21;;;;;;;27.77;12.07;;;7.50;99.90;;;;;;6070397;23;20033;-96
2022/11/26 15:37:57;;;;;;;28.83;12.73;;;7.50;99.90;;;;;;6095870;23;20512;-96
2022/11/26 15:44:04;;;;;;;25.35;12.07;;;7.50;99.90;;;;;;6097358;23;20140;-96
2022/11/26 15:46:34;;;;;;;24.25;12.05;;;7.50;99.90;;;;;;6040957;23;20058;-96
2022/11/26 15:49:04;;;;;;;31.92;12.00;;;7.40;99.90;;;;;;6066236;23;20537;-95
2022/11/26 15:51:33;;;;;;;30.70;12.55;;;7.40;99.90;;;;;;6065191;23;20022;-96
2022/11/26 15:54:36;;;;;;;29.65;12.45;;;7.50;99.90;;;;;;6067495;23;20077;-96
2022/11/26 16:00:52;;;;;;;25.45;13.30;;;7.40;99.90;;;;;;6096856;23;20033;-96
2022/11/26 16:03:37;;;;;;;29.23;13.35;;;7.40;99.90;;;;;;6071697;23;20025;-96
2022/11/26 16:06:31;;;;;;;30.42;13.65;;;7.40;99.90;;;;;;6071622;23;20463;-96
2022/11/26 16:13:16;;;;;;;29.08;12.98;;;6.60;99.90;;;;;;6095821;23;20078;-96
2022/11/26 16:16:00;;;;;;;36.63;13.65;;;7.30;99.90;;;;;;6071680;23;20021;-96
2022/11/26 16:18:41;;;;;;;28.65;12.85;;;7.30;99.90;;;;;;6071718;23;20586;-96
2022/11/26 16:21:33;;;;;;;28.60;13.82;;;7.30;99.90;;;;;;6071608;23;20023;-96
2022/11/26 16:24:37;;;;;;;33.13;13.68;;;7.30;99.90;;;;;;6071570;23;20021;-94
2022/11/26 16:27:22;;;;;;;30.85;13.35;;;7.10;99.90;;;;;;6072644;23;20393;-96
2022/11/26 16:33:36;;;;;;;25.90;13.82;;;7.20;99.90;;;;;;6095207;23;20030;-95
2022/11/26 16:36:52;;;;;;;;;;;;;;;;;;;;;
2022/11/26 16:40:16;;;;;;;27.90;13.68;;;7.30;99.90;;;;;;6035910;23;20642;-96
2022/11/26 16:46:26;;;;;;;31.30;14.15;;;6.80;99.90;;;;;;6037904;23;20078;-96
2022/11/26 16:52:37;;;;;;;27.10;13.20;;;7.00;99.90;;;;;;6039159;23;20018;-95
2022/11/26 16:58:37;;;;;;;23.77;11.93;;;7.00;99.90;;;;;;6039161;23;20023;-96
2022/11/26 17:01:08;;;;;;;28.90;12.90;;;7.00;99.90;;;;;;5993681;23;20095;-96
2022/11/26 17:07:23;;;;;;;25.55;12.10;;;7.20;99.90;;;;;;6039926;23;20388;-96
2022/11/26 17:13:51;;;;;;;27.73;12.55;;;7.20;99.90;;;;;;6042013;23;20028;-96
2022/11/26 17:16:39;;;;;;;35.65;13.10;;;7.00;99.90;;;;;;6019413;23;20067;-95
2022/11/26 17:19:43;;;;;;;27.70;12.98;;;6.80;99.90;;;;;;6017604;23;20026;-96
2022/11/26 17:22:48;;;;;;;22.13;11.75;;;6.90;99.90;;;;;;6015898;23;20019;-96
2022/11/26 17:25:35;;;;;;;25.60;12.18;;;6.90;99.90;;;;;;6015497;23;20023;-95
2022/11/26 17:28:04;;;;;;;23.77;12.55;;;6.90;99.90;;;;;;6016159;23;20613;-96
2022/11/26 17:30:49;;;;;;;23.40;13.02;;;6.70;99.90;;;;;;6015550;23;20038;-95
2022/11/26 17:33:39;;;;;;;25.70;13.25;;;6.60;99.90;;;;;;6014864;23;20023;-96
2022/11/26 17:36:45;;;;;;;26.70;12.25;;;6.60;99.90;;;;;;6015412;23;20019;-95
2022/11/26 17:39:12;;;;;;;30.73;12.73;;;6.00;99.90;;;;;;6015975;23;20019;-96
2022/11/26 17:41:39;;;;;;;35.15;14.60;;;6.70;99.90;;;;;;6015856;23;20023;-95
2022/11/26 17:44:06;;;;;;;30.50;12.30;;;6.60;99.90;;;;;;6016329;23;20019;-95
2022/11/26 17:47:17;;;;;;;27.67;13.30;;;6.60;99.90;;;;;;6015987;23;20019;-96
2022/11/26 17:49:44;;;;;;;24.67;12.05;;;6.50;99.90;;;;;;6038318;23;20026;-95
2022/11/26 17:52:29;;;;;;;31.35;13.25;;;6.50;99.90;;;;;;6039738;23;20174;-96
2022/11/26 17:58:39;;;;;;;29.27;11.87;;;6.50;99.90;;;;;;6064822;23;20062;-96
2022/11/26 18:05:06;;;;;;;26.98;11.80;;;6.50;99.90;;;;;;6041131;23;20018;-96
2022/11/26 18:07:33;;;;;;;31.20;12.73;;;6.40;99.90;;;;;;6015986;23;20074;-95
2022/11/26 18:10:00;;;;;;;24.65;11.95;;;6.50;99.90;;;;;;6014951;23;20026;-95
2022/11/26 18:12:27;;;;;;;30.25;12.52;;;6.80;99.90;;;;;;6015830;23;20055;-96
2022/11/26 18:18:37;;;;;;;26.50;11.57;;;6.40;99.90;;;;;;6038823;23;20110;-96
2022/11/26 18:21:03;;;;;;;25.02;12.60;;;5.70;99.90;;;;;;6011482;23;20050;-95
2022/11/26 18:23:29;;;;;;;26.00;10.98;;;6.50;99.90;;;;;;5985133;23;20026;-96
2022/11/26 18:25:55;;;;;;;27.83;12.00;;;6.40;99.90;;;;;;5987264;23;20390;-96
2022/11/26 18:28:23;;;;;;;23.80;11.98;;;6.50;99.90;;;;;;6009837;23;20019;-96
2022/11/26 18:30:49;;;;;;;32.15;12.30;;;6.50;99.90;;;;;;6011096;23;20075;-96
2022/11/26 18:37:01;;;;;;;24.40;11.57;;;6.40;99.90;;;;;;6041167;23;20634;-96
2022/11/26 18:39:27;;;;;;;30.58;12.93;;;6.10;99.90;;;;;;6048245;23;20026;-96
2022/11/26 18:45:53;;;;;;;27.63;12.07;;;6.40;99.90;;;;;;6097210;23;20100;-96
2022/11/26 18:51:47;;;;;;;25.05;11.93;;;6.40;99.90;;;;;;6095818;23;20019;-96
2022/11/26 18:54:23;;;;;;;29.90;12.13;;;6.40;99.90;;;;;;6073447;23;20069;-96
2022/11/26 19:00:13;;;;;;;26.10;10.95;;;6.40;99.90;;;;;;6095905;23;20348;-95
2022/11/26 19:07:04;;;;;;;27.98;11.25;;;6.40;99.90;;;;;;6096607;23;20123;-95
2022/11/26 19:10:18;;;;;;;;;;;;;;;;;;;;;
2022/11/26 19:13:23;;;;;;;34.55;11.40;;;6.50;99.90;;;;;;6096090;23;20369;-96
2022/11/26 19:15:55;;;;;;;34.47;12.35;;;7.00;99.90;;;;;;6073771;23;20018;-96
2022/11/26 19:18:22;;;;;;;31.00;10.75;;;6.40;99.90;;;;;;6048450;23;20022;-96
2022/11/26 19:21:19;;;;;;;25.08;11.18;;;6.40;99.90;;;;;;6047841;23;20014;-96
2022/11/26 19:23:48;;;;;;;29.30;10.35;;;6.40;99.90;;;;;;6071313;23;20019;-96
2022/11/26 19:26:53;;;;;;;27.70;10.93;;;6.40;99.90;;;;;;6071887;23;20018;-93
2022/11/26 19:33:00;;;;;;;21.90;9.75;;;6.40;99.90;;;;;;6096607;23;20050;-96
2022/11/26 19:35:30;;;;;;;20.15;10.85;;;6.40;99.90;;;;;;6047702;23;20022;-95
2022/11/26 19:37:56;;;;;;;24.98;10.02;;;6.30;99.90;;;;;;6070701;23;20022;-92
2022/11/26 19:40:25;;;;;;;24.40;10.70;;;6.40;99.90;;;;;;6073012;23;20074;-96
2022/11/26 19:46:38;;;;;;;19.52;9.02;;;6.30;99.90;;;;;;6096480;23;20048;-96
2022/11/26 19:49:06;;;;;;;23.42;8.93;;;6.30;99.90;;;;;;6071782;23;20015;-95
2022/11/26 19:51:36;;;;;;;23.55;9.68;;;6.30;99.90;;;;;;6047904;23;20333;-95
2022/11/26 19:54:40;;;;;;;25.95;9.32;;;7.10;99.90;;;;;;6048564;23;20019;-96
2022/11/26 19:57:09;;;;;;;19.27;8.60;;;6.30;99.90;;;;;;6073145;23;20058;-95
2022/11/26 19:59:53;;;;;;;23.42;10.27;;;6.20;99.90;;;;;;6072501;23;20015;-95
2022/11/26 20:02:41;;;;;;;19.63;8.68;;;6.30;99.90;;;;;;6072657;23;20018;-96
2022/11/26 20:05:07;;;;;;;25.17;8.82;;;6.30;99.90;;;;;;6073951;23;20021;-94
2022/11/26 20:07:35;;;;;;;28.80;9.15;;;6.20;99.90;;;;;;6074645;23;20026;-95
2022/11/26 20:10:29;;;;;;;21.42;8.65;;;6.20;99.90;;;;;;6071835;23;20010;-95
2022/11/26 20:13:18;;;;;;;21.85;7.63;;;6.30;99.90;;;;;;6071704;23;20022;-96
2022/11/26 20:19:11;;;;;;;23.17;8.55;;;6.30;99.90;;;;;;6095193;23;20022;-95
2022/11/26 20:28:03;;;;;;;27.40;8.52;;;6.40;99.90;;;;;;6119689;23;20053;-95
2022/11/26 20:30:39;;;;;;;26.92;8.05;;;6.50;99.90;;;;;;6048246;23;20161;-96
2022/11/26 20:36:45;;;;;;;22.85;7.78;;;6.50;99.90;;;;;;6097808;23;20030;-96
2022/11/26 20:39:30;;;;;;;24.77;7.85;;;6.50;99.90;;;;;;6098383;23;20026;-96
2022/11/26 20:45:39;;;;;;;21.45;7.28;;;6.50;99.90;;;;;;6123183;23;20022;-96
2022/11/26 20:48:30;;;;;;;24.33;7.25;;;6.60;99.90;;;;;;6074152;23;20025;-95
2022/11/26 20:51:16;;;;;;;17.88;7.32;;;6.60;99.90;;;;;;6090133;23;20006;-96
2022/11/26 20:53:49;;;;;;;27.80;7.63;;;6.70;99.90;;;;;;6094872;23;20022;-95
2022/11/26 20:57:05;;;;;;;;;;;;;;;;;;;;;
2022/11/26 21:03:16;;;;;;;17.63;6.97;;;6.80;99.90;;;;;;6110427;23;20082;-96
2022/11/26 21:06:20;;;;;;;22.02;6.88;;;6.80;99.90;;;;;;6050851;23;20031;-95
2022/11/26 21:08:46;;;;;;;27.10;9.55;;;6.80;99.90;;;;;;6073513;23;20097;-94
2022/11/26 21:11:34;;;;;;;22.02;8.35;;;6.90;99.90;;;;;;6073813;23;20089;-96
2022/11/26 21:14:25;;;;;;;28.85;7.30;;;6.90;99.90;;;;;;6074120;23;20026;-95
2022/11/26 21:17:13;;;;;;;15.30;6.22;;;7.00;99.90;;;;;;6075587;23;20026;-95
2022/11/26 21:19:58;;;;;;;20.17;6.53;;;7.00;99.90;;;;;;6073372;23;20022;-94
2022/11/26 21:22:44;;;;;;;17.95;6.60;;;7.00;99.90;;;;;;6073268;23;20037;-95
2022/11/26 21:25:11;;;;;;;20.80;6.20;;;7.00;99.90;;;;;;6049222;23;20051;-95
2022/11/26 21:27:41;;;;;;;16.60;6.05;;;7.00;99.90;;;;;;6050231;23;20345;-95
2022/11/26 21:34:07;;;;;;;18.13;6.00;;;7.00;99.90;;;;;;6098000;23;20082;-96
2022/11/26 21:37:02;;;;;;;16.98;6.10;;;7.00;99.90;;;;;;6071184;23;20084;-96
2022/11/26 21:39:30;;;;;;;19.52;6.05;;;6.90;99.90;;;;;;6049534;23;20473;-95
2022/11/26 21:41:57;;;;;;;21.58;6.15;;;6.90;99.90;;;;;;6048958;23;20046;-96
2022/11/26 21:44:30;;;;;;;14.50;5.00;;;6.90;99.90;;;;;;6049462;23;20567;-96
2022/11/26 21:47:16;;;;;;;20.10;6.13;;;6.90;99.90;;;;;;6072024;23;20018;-96
2022/11/26 21:50:04;;;;;;;15.00;5.88;;;6.90;99.90;;;;;;6072777;23;20029;-96